Time;durP1;ratioP1;P1;durP2;ratioP2;P2;SDS_P1;SDS_P2;PMS_P1;PMS_P2;Temp;Humidity;BMP_temperature;BMP_pressure;BME280_temperature;BME280_humidity;BME280_pressure;Samples;Min_cycle;Max_cycle;Signal;HPM_P1;HPM_P2
2022/09/03 00:00:15;;;;;;;5.35;3.35;;;14.70;99.90;;;;;;2121254;28;20027;-69
2022/09/03 00:01:49;;;;;;;5.00;3.40;;;14.70;99.90;;;;;;2114670;28;20469;-70
2022/09/03 00:02:58;;;;;;;4.07;3.50;;;14.70;99.90;;;;;;2117146;28;20031;-70
2022/09/03 00:04:07;;;;;;;4.97;3.50;;;14.70;99.90;;;;;;2113575;28;20031;-71
2022/09/03 00:05:24;;;;;;;6.07;3.25;;;14.70;99.90;;;;;;2121294;28;20441;-70
2022/09/03 00:06:37;;;;;;;5.30;3.50;;;14.70;99.90;;;;;;2121421;27;20068;-71
2022/09/03 00:07:56;;;;;;;3.85;3.45;;;14.70;99.90;;;;;;2121823;27;20062;-70
2022/09/03 00:09:24;;;;;;;5.05;3.70;;;14.70;99.90;;;;;;2121734;27;20509;-73
2022/09/03 00:10:50;;;;;;;4.00;3.22;;;14.70;99.90;;;;;;2121921;28;20019;-70
2022/09/03 00:12:13;;;;;;;4.43;3.50;;;14.70;99.90;;;;;;2120925;27;20070;-71
2022/09/03 00:13:22;;;;;;;5.00;3.60;;;14.70;99.90;;;;;;2115388;28;20027;-71
2022/09/03 00:14:27;;;;;;;4.10;3.55;;;14.70;99.90;;;;;;2113830;28;20174;-70
2022/09/03 00:15:35;;;;;;;4.85;3.20;;;14.70;99.90;;;;;;2121278;28;20028;-70
2022/09/03 00:16:45;;;;;;;3.60;3.17;;;14.70;99.90;;;;;;2121489;28;20034;-72
2022/09/03 00:18:04;;;;;;;4.68;3.38;;;14.70;99.90;;;;;;2121336;28;20070;-71
2022/09/03 00:19:05;;;;;;;5.35;3.53;;;14.70;99.90;;;;;;2121846;27;20058;-71
2022/09/03 00:20:10;;;;;;;4.18;3.45;;;14.70;99.90;;;;;;2121729;28;20027;-69
2022/09/03 00:21:16;;;;;;;4.60;3.50;;;14.70;99.90;;;;;;2121575;27;20034;-70
2022/09/03 00:22:30;;;;;;;5.95;3.70;;;14.70;99.90;;;;;;2121197;27;20038;-72
2022/09/03 00:23:33;;;;;;;4.28;3.65;;;14.70;99.90;;;;;;2121540;27;20031;-70
2022/09/03 00:24:38;;;;;;;4.18;3.40;;;14.70;99.90;;;;;;2121690;28;20015;-71
2022/09/03 00:25:50;;;;;;;5.22;4.10;;;14.70;99.90;;;;;;2118299;27;20106;-70
2022/09/03 00:26:59;;;;;;;5.70;4.50;;;14.60;99.90;;;;;;2118990;27;20544;-72
2022/09/03 00:28:12;;;;;;;6.55;4.65;;;14.60;99.90;;;;;;2112758;28;20024;-69
2022/09/03 00:29:19;;;;;;;7.35;5.25;;;14.60;99.90;;;;;;2105941;28;20140;-70
2022/09/03 00:30:22;;;;;;;6.60;5.38;;;14.60;99.90;;;;;;2113004;28;20436;-70
2022/09/03 00:31:32;;;;;;;6.70;5.40;;;14.60;99.90;;;;;;2113254;28;20027;-70
2022/09/03 00:32:38;;;;;;;;;;;14.50;99.90;;;;;;2113505;28;20027;-71
2022/09/03 00:33:43;;;;;;;7.35;5.20;;;14.50;99.90;;;;;;2120699;28;19904;-70
2022/09/03 00:34:55;;;;;;;7.07;4.80;;;14.50;99.90;;;;;;2121428;28;20038;-71
2022/09/03 00:36:02;;;;;;;9.73;4.43;;;14.40;99.90;;;;;;2120948;28;20106;-71
2022/09/03 00:37:04;;;;;;;6.40;4.93;;;14.40;99.90;;;;;;2121285;28;20035;-70
2022/09/03 00:38:11;;;;;;;6.95;4.82;;;14.30;99.90;;;;;;2121364;27;20669;-71
2022/09/03 00:39:14;;;;;;;6.30;4.57;;;14.30;99.90;;;;;;2121386;27;20137;-72
2022/09/03 00:40:30;;;;;;;6.35;4.40;;;14.20;99.90;;;;;;2121564;27;20034;-72
2022/09/03 00:41:58;;;;;;;6.65;4.20;;;14.20;99.90;;;;;;2121543;28;20020;-71
2022/09/03 00:43:33;;;;;;;4.90;4.20;;;14.10;99.90;;;;;;2121633;27;20039;-71
2022/09/03 00:45:01;;;;;;;5.32;3.97;;;14.00;99.90;;;;;;2121446;27;20035;-71
2022/09/03 00:46:26;;;;;;;5.53;3.78;;;14.00;99.90;;;;;;2122801;27;20041;-71
2022/09/03 00:47:47;;;;;;;5.32;3.70;;;13.90;99.90;;;;;;2123169;27;20665;-69
2022/09/03 00:49:14;;;;;;;4.72;3.70;;;13.90;99.90;;;;;;2122558;27;20081;-69
2022/09/03 00:50:32;;;;;;;4.60;3.60;;;13.80;99.90;;;;;;2122420;27;20473;-69
2022/09/03 00:51:42;;;;;;;4.55;3.30;;;13.80;99.90;;;;;;2122865;27;20460;-69
2022/09/03 00:53:10;;;;;;;4.45;3.60;;;13.80;99.90;;;;;;2122185;27;20026;-69
2022/09/03 00:54:20;;;;;;;3.50;3.20;;;13.70;99.90;;;;;;2113839;28;20047;-71
2022/09/03 00:55:35;;;;;;;4.57;3.40;;;13.70;99.90;;;;;;2115050;27;20034;-71
2022/09/03 00:57:24;;;;;;;4.55;3.10;;;13.70;99.90;;;;;;2123005;27;20027;-71
2022/09/03 00:58:42;;;;;;;3.50;3.20;;;13.70;99.90;;;;;;2104907;28;20032;-70
2022/09/03 01:00:19;;;;;;;4.35;3.30;;;13.70;99.90;;;;;;2104889;28;20099;-70
2022/09/03 01:01:33;;;;;;;4.20;3.30;;;13.60;99.90;;;;;;2122927;27;20093;-70
2022/09/03 01:02:55;;;;;;;5.15;3.20;;;13.60;99.90;;;;;;2121939;27;20019;-70
2022/09/03 01:04:06;;;;;;;4.03;3.17;;;13.50;99.90;;;;;;2122428;27;20396;-70
2022/09/03 01:05:27;;;;;;;4.53;3.40;;;13.60;99.90;;;;;;2122891;27;20545;-70
2022/09/03 01:06:46;;;;;;;3.78;2.92;;;13.50;99.90;;;;;;2123149;27;20107;-70
2022/09/03 01:08:08;;;;;;;5.03;3.20;;;13.50;99.90;;;;;;2123479;27;20031;-71
2022/09/03 01:09:34;;;;;;;4.10;3.00;;;13.50;99.90;;;;;;2123128;27;20083;-71
2022/09/03 01:11:09;;;;;;;3.20;2.75;;;13.50;99.90;;;;;;2113993;28;20086;-71
2022/09/03 01:12:24;;;;;;;3.97;2.92;;;13.40;99.90;;;;;;2114474;27;20114;-70
2022/09/03 01:13:38;;;;;;;5.13;3.13;;;13.40;99.90;;;;;;2122343;27;20019;-71
2022/09/03 01:14:52;;;;;;;3.28;2.97;;;13.40;99.90;;;;;;2122609;27;20122;-71
2022/09/03 01:16:02;;;;;;;3.50;3.10;;;13.30;99.90;;;;;;2122918;27;20019;-70
2022/09/03 01:17:18;;;;;;;5.32;2.90;;;13.30;99.90;;;;;;2122842;27;20031;-70
2022/09/03 01:19:02;;;;;;;3.03;2.70;;;13.30;99.90;;;;;;2122482;27;20071;-71
2022/09/03 01:20:47;;;;;;;4.05;2.83;;;13.30;99.90;;;;;;2119857;27;20039;-71
2022/09/03 01:22:02;;;;;;;3.58;3.00;;;13.30;99.90;;;;;;2085455;28;20598;-70
2022/09/03 01:23:24;;;;;;;4.85;3.00;;;13.20;99.90;;;;;;2087928;28;20037;-70
2022/09/03 01:24:52;;;;;;;3.58;2.65;;;13.20;99.90;;;;;;2108036;27;20100;-69
2022/09/03 01:26:01;;;;;;;3.50;2.90;;;13.20;99.90;;;;;;2122803;27;20760;-69
2022/09/03 01:27:25;;;;;;;3.17;2.88;;;13.20;99.90;;;;;;2123042;27;20056;-70
2022/09/03 01:28:33;;;;;;;4.63;3.03;;;13.20;99.90;;;;;;2122809;27;20011;-70
2022/09/03 01:30:02;;;;;;;3.42;2.90;;;13.20;99.90;;;;;;2122450;27;20105;-70
2022/09/03 01:31:35;;;;;;;3.10;2.80;;;13.20;99.90;;;;;;2122891;27;20082;-71
2022/09/03 01:32:38;;;;;;;3.63;2.80;;;13.20;99.90;;;;;;2121954;27;20424;-72
2022/09/03 01:33:56;;;;;;;3.10;2.70;;;13.10;99.90;;;;;;2114071;27;20031;-71
2022/09/03 01:35:24;;;;;;;5.28;2.97;;;13.10;99.90;;;;;;2122784;27;20027;-71
2022/09/03 01:36:44;;;;;;;4.85;2.95;;;13.10;99.90;;;;;;2122990;27;20031;-70
2022/09/03 01:38:03;;;;;;;4.65;2.78;;;13.10;99.90;;;;;;2122120;27;20023;-70
2022/09/03 01:39:09;;;;;;;3.03;2.72;;;13.10;99.90;;;;;;2122470;27;20023;-70
2022/09/03 01:40:23;;;;;;;4.20;2.97;;;13.10;99.90;;;;;;2123298;27;20035;-71
2022/09/03 01:43:02;;;;;;;3.95;2.80;;;13.10;99.90;;;;;;2122723;27;20470;-71
2022/09/03 01:44:57;;;;;;;2.97;2.67;;;13.10;99.90;;;;;;2123246;27;20027;-70
2022/09/03 01:46:33;;;;;;;4.03;2.70;;;13.10;99.90;;;;;;2122992;27;20027;-71
2022/09/03 01:47:36;;;;;;;3.38;2.70;;;13.10;99.90;;;;;;2122233;27;20031;-71
2022/09/03 01:49:01;;;;;;;4.15;2.80;;;13.10;99.90;;;;;;2122078;27;20058;-71
2022/09/03 01:50:16;;;;;;;3.53;2.90;;;13.10;99.90;;;;;;2122740;27;20023;-71
2022/09/03 01:51:27;;;;;;;2.95;2.65;;;13.00;99.90;;;;;;2122755;27;20027;-71
2022/09/03 01:52:36;;;;;;;4.90;2.90;;;13.00;99.90;;;;;;2122344;27;20019;-71
2022/09/03 01:53:56;;;;;;;4.35;3.10;;;13.00;99.90;;;;;;2122932;27;20140;-71
2022/09/03 01:55:18;;;;;;;3.60;2.83;;;13.00;99.90;;;;;;2122796;27;20031;-70
2022/09/03 01:56:37;;;;;;;3.60;3.05;;;13.00;99.90;;;;;;2122436;27;20046;-70
2022/09/03 01:57:54;;;;;;;4.03;2.85;;;13.00;99.90;;;;;;2122759;27;20027;-70
2022/09/03 01:59:22;;;;;;;4.90;2.78;;;12.90;99.90;;;;;;2122023;27;20084;-70
2022/09/03 02:00:25;;;;;;;4.18;2.60;;;12.90;99.90;;;;;;2122313;27;20019;-70
2022/09/03 02:01:31;;;;;;;5.10;2.90;;;12.90;99.90;;;;;;2122740;27;20046;-70
2022/09/03 02:02:35;;;;;;;3.38;2.97;;;12.90;99.90;;;;;;2121745;27;20026;-70
2022/09/03 02:03:39;;;;;;;4.15;2.88;;;12.90;99.90;;;;;;2114307;27;20035;-70
2022/09/03 02:04:40;;;;;;;4.70;3.10;;;12.90;99.90;;;;;;2122810;27;20024;-71
2022/09/03 02:05:42;;;;;;;3.20;2.78;;;12.90;99.90;;;;;;2123588;27;20485;-71
2022/09/03 02:06:46;;;;;;;3.83;3.00;;;12.90;99.90;;;;;;2122866;27;20036;-71
2022/09/03 02:07:52;;;;;;;3.20;2.90;;;12.80;99.90;;;;;;2122214;27;20516;-70
2022/09/03 02:08:53;;;;;;;4.05;2.90;;;12.80;99.90;;;;;;2123204;27;20389;-71
2022/09/03 02:09:54;;;;;;;3.92;2.80;;;12.80;99.90;;;;;;2122705;27;20027;-70
2022/09/03 02:11:00;;;;;;;4.32;2.90;;;12.80;99.90;;;;;;2113553;28;20027;-71
2022/09/03 02:12:13;;;;;;;3.67;3.13;;;12.80;99.90;;;;;;2114879;27;20097;-71
2022/09/03 02:13:34;;;;;;;3.67;2.97;;;12.80;99.90;;;;;;2122484;27;20494;-71
2022/09/03 02:14:35;;;;;;;3.88;3.20;;;12.80;99.90;;;;;;2122683;27;20038;-72
2022/09/03 02:15:40;;;;;;;4.25;3.08;;;12.80;99.90;;;;;;2123131;27;20062;-72
2022/09/03 02:16:43;;;;;;;3.28;2.95;;;12.70;99.90;;;;;;2123556;27;20051;-71
2022/09/03 02:17:47;;;;;;;3.10;2.80;;;12.70;99.90;;;;;;2123154;27;20047;-71
2022/09/03 02:18:54;;;;;;;4.32;3.08;;;12.70;99.90;;;;;;2122889;27;20024;-72
2022/09/03 02:19:56;;;;;;;5.43;3.15;;;12.70;99.90;;;;;;2122821;27;20023;-72
2022/09/03 02:21:04;;;;;;;4.95;3.30;;;12.70;99.90;;;;;;2122807;27;20076;-71
2022/09/03 02:22:05;;;;;;;3.33;2.97;;;12.70;99.90;;;;;;2122512;27;20653;-71
2022/09/03 02:23:06;;;;;;;3.83;3.15;;;12.70;99.90;;;;;;2121939;27;20023;-71
2022/09/03 02:24:10;;;;;;;4.65;2.92;;;12.70;99.90;;;;;;2122188;27;20547;-71
2022/09/03 02:25:12;;;;;;;4.40;3.40;;;12.60;99.90;;;;;;2121864;27;20072;-70
2022/09/03 02:26:17;;;;;;;4.38;2.90;;;12.60;99.90;;;;;;2121957;27;20473;-69
2022/09/03 02:27:19;;;;;;;6.13;3.35;;;12.60;99.90;;;;;;2122306;27;20024;-69
2022/09/03 02:28:19;;;;;;;4.07;3.20;;;12.70;99.90;;;;;;2122198;27;20027;-69
2022/09/03 02:29:20;;;;;;;3.30;3.00;;;12.70;99.90;;;;;;2122164;27;20172;-69
2022/09/03 02:30:21;;;;;;;3.80;2.75;;;12.70;99.90;;;;;;2122391;27;20475;-70
2022/09/03 02:31:22;;;;;;;3.72;2.97;;;12.70;99.90;;;;;;2112742;28;20015;-71
2022/09/03 02:32:24;;;;;;;3.10;2.80;;;12.60;99.90;;;;;;2112814;28;20138;-70
2022/09/03 02:33:25;;;;;;;3.78;2.78;;;12.60;99.90;;;;;;2122282;27;20012;-71
2022/09/03 02:34:26;;;;;;;4.25;2.90;;;12.60;99.90;;;;;;2122281;27;20042;-71
2022/09/03 02:35:30;;;;;;;3.20;2.90;;;12.60;99.90;;;;;;2122453;27;20541;-72
2022/09/03 02:36:45;;;;;;;3.47;2.90;;;12.60;99.90;;;;;;2122541;27;20055;-71
2022/09/03 02:37:46;;;;;;;3.42;3.10;;;12.60;99.90;;;;;;2122417;27;20031;-71
2022/09/03 02:38:47;;;;;;;3.45;3.10;;;12.60;99.90;;;;;;2122231;27;20481;-71
2022/09/03 02:39:48;;;;;;;4.28;3.30;;;12.50;99.90;;;;;;2122885;27;20118;-72
2022/09/03 02:40:48;;;;;;;4.85;3.15;;;12.50;99.90;;;;;;2122493;27;20535;-71
2022/09/03 02:41:56;;;;;;;3.50;2.88;;;12.50;99.90;;;;;;2122011;27;20023;-71
2022/09/03 02:42:58;;;;;;;4.03;3.20;;;12.50;99.90;;;;;;2122525;27;20038;-72
2022/09/03 02:44:27;;;;;;;3.78;2.90;;;12.50;99.90;;;;;;2122382;27;20203;-71
2022/09/03 02:45:28;;;;;;;5.85;3.10;;;12.50;99.90;;;;;;2114093;27;20153;-71
2022/09/03 02:46:50;;;;;;;4.15;2.95;;;12.40;99.90;;;;;;2122164;27;20098;-71
2022/09/03 02:47:55;;;;;;;4.80;3.10;;;12.40;99.90;;;;;;2122553;27;20094;-71
2022/09/03 02:49:05;;;;;;;3.85;2.97;;;12.40;99.90;;;;;;2121645;27;20102;-71
2022/09/03 02:50:15;;;;;;;4.28;3.00;;;12.40;99.90;;;;;;2122771;27;20123;-71
2022/09/03 02:51:16;;;;;;;3.83;3.10;;;12.40;99.90;;;;;;2122310;27;20019;-70
2022/09/03 02:52:17;;;;;;;4.82;3.30;;;12.40;99.90;;;;;;2121673;27;20015;-70
2022/09/03 02:53:17;;;;;;;3.30;2.90;;;12.40;99.90;;;;;;2122191;27;20031;-71
2022/09/03 02:54:18;;;;;;;3.20;2.90;;;12.40;99.90;;;;;;2122116;27;20102;-71
2022/09/03 02:55:19;;;;;;;3.63;3.17;;;12.40;99.90;;;;;;2122237;27;20036;-70
2022/09/03 02:56:23;;;;;;;3.25;2.95;;;12.40;99.90;;;;;;2122125;27;20079;-71
2022/09/03 02:57:23;;;;;;;3.47;3.10;;;12.40;99.90;;;;;;2121734;27;20052;-71
2022/09/03 02:58:25;;;;;;;3.40;3.10;;;12.40;99.90;;;;;;2121865;27;20060;-71
2022/09/03 02:59:27;;;;;;;3.53;2.92;;;12.40;99.90;;;;;;2122130;27;20019;-71
2022/09/03 03:00:27;;;;;;;3.60;3.13;;;12.40;99.90;;;;;;2122159;27;20405;-71
2022/09/03 03:01:28;;;;;;;4.22;3.20;;;12.40;99.90;;;;;;2114493;27;20063;-71
2022/09/03 03:02:29;;;;;;;3.60;2.90;;;12.40;99.90;;;;;;2114017;28;20032;-71
2022/09/03 03:03:30;;;;;;;3.75;3.15;;;12.40;99.90;;;;;;2123313;27;20035;-71
2022/09/03 03:04:32;;;;;;;3.83;3.10;;;12.40;99.90;;;;;;2123014;27;20114;-70
2022/09/03 03:05:47;;;;;;;3.58;3.28;;;12.30;99.90;;;;;;2122789;27;20083;-70
2022/09/03 03:06:49;;;;;;;4.18;3.30;;;12.30;99.90;;;;;;2123057;27;20485;-71
2022/09/03 03:07:50;;;;;;;3.60;3.15;;;12.30;99.90;;;;;;2123031;27;20026;-70
2022/09/03 03:08:51;;;;;;;3.65;3.10;;;12.30;99.90;;;;;;2122805;27;20023;-70
2022/09/03 03:09:51;;;;;;;4.10;3.20;;;12.30;99.90;;;;;;2122844;27;20034;-71
2022/09/03 03:10:57;;;;;;;4.40;3.40;;;12.30;99.90;;;;;;2121643;27;20109;-70
2022/09/03 03:11:58;;;;;;;3.92;3.30;;;12.30;99.90;;;;;;2122176;27;20027;-70
2022/09/03 03:12:59;;;;;;;3.45;3.08;;;12.30;99.90;;;;;;2122202;27;20015;-70
2022/09/03 03:13:59;;;;;;;3.80;3.40;;;12.30;99.90;;;;;;2122202;27;20075;-71
2022/09/03 03:15:00;;;;;;;3.90;3.38;;;12.30;99.90;;;;;;2121454;27;20029;-70
2022/09/03 03:16:07;;;;;;;3.60;3.30;;;12.30;99.90;;;;;;2121887;27;20102;-70
2022/09/03 03:17:07;;;;;;;3.60;3.30;;;12.30;99.90;;;;;;2121229;27;20047;-71
2022/09/03 03:18:11;;;;;;;4.18;3.30;;;12.30;99.90;;;;;;2121328;27;20034;-71
2022/09/03 03:19:11;;;;;;;4.22;3.50;;;12.30;99.90;;;;;;2122116;27;20039;-70
2022/09/03 03:20:12;;;;;;;3.33;3.03;;;12.30;99.90;;;;;;2121989;27;20092;-70
2022/09/03 03:21:17;;;;;;;4.07;3.53;;;12.30;99.90;;;;;;2121906;27;20027;-70
2022/09/03 03:22:18;;;;;;;5.68;3.55;;;12.30;99.90;;;;;;2121828;27;20080;-70
2022/09/03 03:23:18;;;;;;;4.03;3.53;;;12.30;99.90;;;;;;2121567;27;20109;-71
2022/09/03 03:24:22;;;;;;;4.13;3.30;;;12.30;99.90;;;;;;2122383;27;20027;-69
2022/09/03 03:25:23;;;;;;;5.55;3.50;;;12.30;99.90;;;;;;2121845;27;20027;-70
2022/09/03 03:26:24;;;;;;;3.83;3.42;;;12.30;99.90;;;;;;2121888;27;20027;-69
2022/09/03 03:27:27;;;;;;;5.03;3.50;;;12.30;99.90;;;;;;2121451;27;20031;-70
2022/09/03 03:28:32;;;;;;;6.43;3.65;;;12.30;99.90;;;;;;2121238;27;20027;-70
2022/09/03 03:29:34;;;;;;;6.28;3.40;;;12.30;99.90;;;;;;2121641;27;20035;-70
2022/09/03 03:30:39;;;;;;;3.80;3.42;;;12.20;99.90;;;;;;2122107;27;20019;-71
2022/09/03 03:31:39;;;;;;;4.32;3.55;;;12.20;99.90;;;;;;2122263;27;20019;-71
2022/09/03 03:32:40;;;;;;;4.82;3.60;;;12.20;99.90;;;;;;2122057;27;20031;-70
2022/09/03 03:33:42;;;;;;;3.72;3.40;;;12.20;99.90;;;;;;2121897;27;20076;-71
2022/09/03 03:34:45;;;;;;;3.88;3.42;;;12.20;99.90;;;;;;2121258;27;20025;-71
2022/09/03 03:35:46;;;;;;;4.18;3.55;;;12.20;99.90;;;;;;2121175;27;20049;-70
2022/09/03 03:36:47;;;;;;;4.40;3.83;;;12.20;99.90;;;;;;2121759;27;20031;-71
2022/09/03 03:37:48;;;;;;;5.78;3.83;;;12.10;99.90;;;;;;2121897;27;20027;-71
2022/09/03 03:38:48;;;;;;;3.95;3.50;;;12.10;99.90;;;;;;2121738;27;20658;-71
2022/09/03 03:39:49;;;;;;;5.55;3.60;;;12.10;99.90;;;;;;2122004;27;20035;-72
2022/09/03 03:40:50;;;;;;;4.57;3.90;;;12.10;99.90;;;;;;2121790;27;20015;-71
2022/09/03 03:41:51;;;;;;;5.15;3.88;;;12.10;99.90;;;;;;2121379;27;20035;-71
2022/09/03 03:42:52;;;;;;;4.75;3.83;;;12.10;99.90;;;;;;2120890;27;20027;-71
2022/09/03 03:43:58;;;;;;;4.53;3.78;;;12.10;99.90;;;;;;2112835;28;20032;-71
2022/09/03 03:45:01;;;;;;;4.93;3.78;;;12.10;99.90;;;;;;2121406;27;20027;-70
2022/09/03 03:46:02;;;;;;;4.43;3.60;;;12.10;99.90;;;;;;2122101;27;20031;-71
2022/09/03 03:47:04;;;;;;;4.50;4.03;;;12.10;99.90;;;;;;2121830;27;20808;-70
2022/09/03 03:48:05;;;;;;;4.50;3.65;;;12.00;99.90;;;;;;2121850;27;20058;-70
2022/09/03 03:49:07;;;;;;;4.75;3.85;;;12.00;99.90;;;;;;2121795;27;20031;-70
2022/09/03 03:50:08;;;;;;;4.93;3.67;;;12.00;99.90;;;;;;2122001;27;20084;-70
2022/09/03 03:51:09;;;;;;;4.68;3.70;;;12.00;99.90;;;;;;2121257;27;20131;-70
2022/09/03 03:52:10;;;;;;;5.18;3.92;;;12.00;99.90;;;;;;2121250;28;20741;-70
2022/09/03 03:53:11;;;;;;;5.70;3.95;;;12.00;99.90;;;;;;2121906;27;20050;-70
2022/09/03 03:54:12;;;;;;;4.47;3.92;;;11.90;99.90;;;;;;2121953;27;20023;-70
2022/09/03 03:55:12;;;;;;;6.00;4.10;;;11.90;99.90;;;;;;2121917;27;20417;-70
2022/09/03 03:56:15;;;;;;;4.32;3.70;;;11.90;99.90;;;;;;2121999;27;20022;-69
2022/09/03 03:57:18;;;;;;;4.80;4.05;;;11.90;99.90;;;;;;2122228;27;20034;-70
2022/09/03 03:58:19;;;;;;;4.30;3.90;;;11.90;99.90;;;;;;2121930;28;20072;-70
2022/09/03 03:59:19;;;;;;;4.45;3.90;;;11.90;99.90;;;;;;2122055;27;20057;-71
2022/09/03 04:00:20;;;;;;;6.97;3.97;;;11.90;99.90;;;;;;2122212;27;20385;-70
2022/09/03 04:01:24;;;;;;;4.40;3.80;;;11.90;99.90;;;;;;2121966;27;20370;-70
2022/09/03 04:02:24;;;;;;;4.30;3.88;;;11.90;99.90;;;;;;2121404;27;20121;-70
2022/09/03 04:03:25;;;;;;;4.82;3.88;;;11.90;99.90;;;;;;2121739;28;20064;-70
2022/09/03 04:04:26;;;;;;;5.57;3.92;;;11.90;99.90;;;;;;2121764;28;20030;-70
2022/09/03 04:05:26;;;;;;;4.95;3.88;;;11.90;99.90;;;;;;2121809;27;20035;-69
2022/09/03 04:06:27;;;;;;;4.70;3.80;;;11.80;99.90;;;;;;2121515;28;20027;-70
2022/09/03 04:07:28;;;;;;;4.85;4.05;;;11.80;99.90;;;;;;2121773;28;20024;-70
2022/09/03 04:08:30;;;;;;;5.45;4.00;;;11.90;99.90;;;;;;2121764;27;20164;-70
2022/09/03 04:09:30;;;;;;;5.20;3.83;;;11.90;99.90;;;;;;2121628;27;20484;-71
2022/09/03 04:10:31;;;;;;;6.72;4.10;;;11.90;99.90;;;;;;2119429;28;20023;-70
2022/09/03 04:11:31;;;;;;;4.50;3.70;;;11.90;99.90;;;;;;2115803;27;20026;-70
2022/09/03 04:12:32;;;;;;;4.10;3.70;;;11.90;99.90;;;;;;2121253;27;20126;-70
2022/09/03 04:13:35;;;;;;;5.85;3.88;;;11.90;99.90;;;;;;2121723;27;20676;-70
2022/09/03 04:14:36;;;;;;;5.28;3.88;;;11.90;99.90;;;;;;2121733;27;20031;-70
2022/09/03 04:15:43;;;;;;;5.05;3.80;;;11.90;99.90;;;;;;2121518;27;20031;-70
2022/09/03 04:16:45;;;;;;;4.47;3.70;;;11.90;99.90;;;;;;2121787;27;20016;-69
2022/09/03 04:17:46;;;;;;;5.45;3.67;;;11.80;99.90;;;;;;2121888;27;20034;-70
2022/09/03 04:18:48;;;;;;;6.00;3.78;;;11.80;99.90;;;;;;2121676;27;20113;-70
2022/09/03 04:19:49;;;;;;;5.50;3.88;;;11.90;99.90;;;;;;2121535;27;20062;-69
2022/09/03 04:20:50;;;;;;;4.53;3.65;;;11.90;99.90;;;;;;2122661;27;20038;-71
2022/09/03 04:21:50;;;;;;;4.40;4.00;;;11.80;99.90;;;;;;2123145;27;20054;-70
2022/09/03 04:22:51;;;;;;;4.40;3.88;;;11.90;99.90;;;;;;2123319;27;20204;-70
2022/09/03 04:23:53;;;;;;;5.20;3.90;;;11.80;99.90;;;;;;2123532;27;20026;-70
2022/09/03 04:24:53;;;;;;;4.68;3.60;;;11.80;99.90;;;;;;2123346;27;20068;-70
2022/09/03 04:25:54;;;;;;;5.75;3.75;;;11.80;99.90;;;;;;2123391;27;20496;-70
2022/09/03 04:26:54;;;;;;;4.90;3.60;;;11.80;99.90;;;;;;2123002;27;20477;-70
2022/09/03 04:27:55;;;;;;;5.13;4.20;;;11.80;99.90;;;;;;2113952;28;20028;-70
2022/09/03 04:28:57;;;;;;;6.40;3.85;;;11.80;99.90;;;;;;2114184;28;20027;-70
2022/09/03 04:29:57;;;;;;;4.47;3.78;;;11.80;99.90;;;;;;2122732;27;20038;-70
2022/09/03 04:31:03;;;;;;;4.57;3.97;;;11.80;99.90;;;;;;2123196;27;20595;-70
2022/09/03 04:33:24;;;;;;;4.65;4.10;;;11.70;99.90;;;;;;2122947;27;20669;-70
2022/09/03 04:34:24;;;;;;;6.55;3.90;;;11.70;99.90;;;;;;2122990;27;20420;-70
2022/09/03 04:35:28;;;;;;;4.80;3.90;;;11.70;99.90;;;;;;2123373;27;20027;-71
2022/09/03 04:36:30;;;;;;;4.40;3.90;;;11.70;99.90;;;;;;2123608;27;20018;-71
2022/09/03 04:37:32;;;;;;;5.32;3.95;;;11.70;99.90;;;;;;2123511;27;20019;-70
2022/09/03 04:38:34;;;;;;;4.93;4.03;;;11.70;99.90;;;;;;2123221;27;20034;-70
2022/09/03 04:39:34;;;;;;;6.53;4.22;;;11.70;99.90;;;;;;2123342;27;20027;-71
2022/09/03 04:40:35;;;;;;;4.68;4.03;;;11.70;99.90;;;;;;2123439;27;20031;-70
2022/09/03 04:41:36;;;;;;;5.88;3.80;;;11.70;99.90;;;;;;2123141;27;20042;-69
2022/09/03 04:42:37;;;;;;;4.30;3.90;;;11.80;99.90;;;;;;2122508;27;20035;-71
2022/09/03 04:43:38;;;;;;;5.03;4.10;;;11.70;99.90;;;;;;2123030;27;20038;-70
2022/09/03 04:44:39;;;;;;;5.53;4.00;;;11.80;99.90;;;;;;2123159;27;20038;-74
2022/09/03 04:45:40;;;;;;;5.00;4.05;;;11.70;99.90;;;;;;2122499;27;20046;-71
2022/09/03 04:46:41;;;;;;;4.80;4.30;;;11.70;99.90;;;;;;2121310;27;20583;-71
2022/09/03 04:47:41;;;;;;;5.72;4.10;;;11.70;99.90;;;;;;2122817;27;20054;-71
2022/09/03 04:48:42;;;;;;;5.30;4.30;;;11.70;99.90;;;;;;2122340;27;20092;-72
2022/09/03 04:49:43;;;;;;;5.97;4.20;;;11.70;99.90;;;;;;2122629;27;20027;-72
2022/09/03 04:50:44;;;;;;;4.90;4.15;;;11.60;99.90;;;;;;2122257;27;20046;-72
2022/09/03 04:51:45;;;;;;;4.72;4.30;;;11.60;99.90;;;;;;2122424;27;20545;-74
2022/09/03 04:52:46;;;;;;;4.35;3.75;;;11.60;99.90;;;;;;2122189;27;20031;-71
2022/09/03 04:53:51;;;;;;;4.88;3.92;;;11.60;99.90;;;;;;2122964;27;20019;-72
2022/09/03 04:54:52;;;;;;;5.30;3.90;;;11.60;99.90;;;;;;2123027;27;20024;-72
2022/09/03 04:55:53;;;;;;;5.43;3.88;;;11.60;99.90;;;;;;2122155;27;20529;-72
2022/09/03 04:56:54;;;;;;;4.47;3.80;;;11.60;99.90;;;;;;2113718;28;20067;-72
2022/09/03 04:57:54;;;;;;;5.50;3.72;;;11.60;99.90;;;;;;2122338;27;20097;-73
2022/09/03 04:59:01;;;;;;;5.28;3.83;;;11.60;99.90;;;;;;2122205;27;20023;-73
2022/09/03 05:00:02;;;;;;;4.70;3.88;;;11.60;99.90;;;;;;2122300;27;20102;-72
2022/09/03 05:01:10;;;;;;;4.82;4.00;;;11.60;99.90;;;;;;2123005;27;20057;-73
2022/09/03 05:02:10;;;;;;;4.78;3.97;;;11.60;99.90;;;;;;2122081;27;20516;-73
2022/09/03 05:03:11;;;;;;;4.63;3.83;;;11.60;99.90;;;;;;2113900;28;20024;-73
2022/09/03 05:04:12;;;;;;;5.63;3.92;;;11.60;99.90;;;;;;2122497;27;20035;-73
2022/09/03 05:05:13;;;;;;;5.15;4.00;;;11.70;99.90;;;;;;2123090;27;20083;-73
2022/09/03 05:06:16;;;;;;;4.20;3.75;;;11.70;99.90;;;;;;2122335;27;20450;-73
2022/09/03 05:07:16;;;;;;;5.05;4.05;;;11.70;99.90;;;;;;2121455;27;20051;-73
2022/09/03 05:08:17;;;;;;;5.35;4.05;;;11.80;99.90;;;;;;2123352;27;20554;-76
2022/09/03 05:09:18;;;;;;;6.10;3.80;;;12.00;99.90;;;;;;2124569;27;20062;-74
2022/09/03 05:10:22;;;;;;;4.22;3.70;;;12.30;99.90;;;;;;2124282;27;20047;-75
2022/09/03 05:11:25;;;;;;;4.32;3.47;;;12.60;99.90;;;;;;2123407;27;20489;-76
2022/09/03 05:12:25;;;;;;;4.28;3.55;;;12.90;99.90;;;;;;2114446;27;20138;-75
2022/09/03 05:13:27;;;;;;;5.63;3.50;;;13.20;99.90;;;;;;2122725;27;20695;-76
2022/09/03 05:14:28;;;;;;;5.00;3.45;;;13.40;99.90;;;;;;2124214;27;20019;-77
2022/09/03 05:15:30;;;;;;;5.35;3.58;;;13.70;99.90;;;;;;2122968;27;20073;-76
2022/09/03 05:16:31;;;;;;;5.20;3.60;;;13.90;99.90;;;;;;2123076;27;20023;-77
2022/09/03 05:17:31;;;;;;;5.00;3.50;;;14.20;99.90;;;;;;2122879;27;20051;-73
2022/09/03 05:18:36;;;;;;;6.55;3.60;;;14.40;99.90;;;;;;2121495;27;20601;-73
2022/09/03 05:19:37;;;;;;;3.97;3.10;;;14.60;99.90;;;;;;2122352;27;20023;-73
2022/09/03 05:20:38;;;;;;;4.70;3.50;;;14.80;99.90;;;;;;2123030;27;20089;-76
2022/09/03 05:21:39;;;;;;;6.03;3.40;;;14.90;99.90;;;;;;2123390;27;20039;-78
2022/09/03 05:22:40;;;;;;;4.22;3.40;;;15.00;99.90;;;;;;2114077;28;20120;-74
2022/09/03 05:23:45;;;;;;;4.00;3.20;;;15.20;99.90;;;;;;2122711;27;20081;-75
2022/09/03 05:24:50;;;;;;;3.28;2.97;;;15.30;99.90;;;;;;2123413;27;20027;-74
2022/09/03 05:25:57;;;;;;;4.20;3.40;;;15.50;99.90;;;;;;2123580;27;20030;-75
2022/09/03 05:26:58;;;;;;;3.60;3.25;;;15.60;99.90;;;;;;2122415;27;20104;-76
2022/09/03 05:27:59;;;;;;;6.10;3.10;;;15.70;99.90;;;;;;2123538;27;20031;-73
2022/09/03 05:29:03;;;;;;;6.43;3.15;;;15.80;99.90;;;;;;2123713;27;20027;-75
2022/09/03 05:30:04;;;;;;;4.32;3.00;;;15.80;99.90;;;;;;2123952;27;20035;-75
2022/09/03 05:31:06;;;;;;;4.07;3.00;;;15.80;99.90;;;;;;2122891;27;20023;-75
2022/09/03 05:32:06;;;;;;;3.63;3.20;;;15.70;99.90;;;;;;2114372;28;20024;-75
2022/09/03 05:33:07;;;;;;;3.97;2.90;;;15.60;99.90;;;;;;2114206;28;20034;-74
2022/09/03 05:34:09;;;;;;;3.90;3.20;;;15.30;99.90;;;;;;2122650;27;20421;-73
2022/09/03 05:35:10;;;;;;;6.35;3.20;;;15.10;99.90;;;;;;2123080;27;20098;-73
2022/09/03 05:36:13;;;;;;;3.60;2.97;;;14.90;99.90;;;;;;2123372;27;20022;-74
2022/09/03 05:37:14;;;;;;;3.78;3.10;;;14.70;99.90;;;;;;2123078;27;20114;-75
2022/09/03 05:38:15;;;;;;;3.47;3.17;;;14.40;99.90;;;;;;2113996;28;20415;-74
2022/09/03 05:39:16;;;;;;;4.15;3.25;;;14.30;99.90;;;;;;2114636;28;20064;-74
2022/09/03 05:40:17;;;;;;;3.60;3.22;;;14.10;99.90;;;;;;2122902;27;20023;-77
2022/09/03 05:41:17;;;;;;;5.05;3.20;;;14.00;99.90;;;;;;2123706;27;20543;-73
2022/09/03 05:42:19;;;;;;;5.93;3.65;;;13.80;99.90;;;;;;2122765;27;20027;-75
2022/09/03 05:43:20;;;;;;;3.38;3.03;;;13.80;99.90;;;;;;2123347;27;20023;-76
2022/09/03 05:44:22;;;;;;;3.53;3.22;;;13.70;99.90;;;;;;2123912;27;20104;-74
2022/09/03 05:45:23;;;;;;;8.30;3.35;;;13.60;99.90;;;;;;2121980;27;20031;-73
2022/09/03 05:46:30;;;;;;;4.03;3.00;;;13.50;99.90;;;;;;2123401;27;20015;-74
2022/09/03 05:47:31;;;;;;;3.72;3.10;;;13.50;99.90;;;;;;2123028;27;20103;-75
2022/09/03 05:48:36;;;;;;;4.70;3.22;;;13.40;99.90;;;;;;2115379;28;20095;-75
2022/09/03 05:49:37;;;;;;;6.22;4.15;;;13.40;99.90;;;;;;2123019;27;20044;-73
2022/09/03 05:50:38;;;;;;;7.28;4.45;;;13.30;99.90;;;;;;2123425;27;20485;-74